Time;durP1;ratioP1;P1;durP2;ratioP2;P2;SDS_P1;SDS_P2;PMS_P1;PMS_P2;Temp;Humidity;BMP_temperature;BMP_pressure;BME280_temperature;BME280_humidity;BME280_pressure;Samples;Min_cycle;Max_cycle;Signal;HPM_P1;HPM_P2
2024/02/20 00:01:55;;;;;;;0.80;0.80;;;;;;;7.34;93.81;99438.88;4943422;29;20519;-93
2024/02/20 00:04:21;;;;;;;0.80;0.80;;;;;;;7.39;93.65;99441.78;4923963;29;20041;-92
2024/02/20 00:06:47;;;;;;;0.80;0.80;;;;;;;7.46;93.48;99427.97;4957338;28;20114;-94
2024/02/20 00:09:15;;;;;;;0.70;0.70;;;;;;;7.34;93.80;99428.25;4947487;29;20023;-94
2024/02/20 00:11:43;;;;;;;0.70;0.70;;;;;;;7.35;93.21;99424.78;4920348;29;20049;-92
2024/02/20 00:14:09;;;;;;;0.80;0.80;;;;;;;7.35;93.09;99423.88;4958251;29;20034;-93
2024/02/20 00:16:37;;;;;;;0.80;0.80;;;;;;;7.27;93.44;99412.84;4925215;29;20039;-92
2024/02/20 00:19:03;;;;;;;0.80;0.80;;;;;;;7.28;93.05;99427.94;4926566;29;20101;-94
2024/02/20 00:21:28;;;;;;;0.80;0.80;;;;;;;7.32;92.94;99427.25;4950846;29;20089;-93
2024/02/20 00:23:54;;;;;;;0.80;0.80;;;;;;;7.33;92.67;99430.81;4942822;29;20552;-95
2024/02/20 00:26:21;;;;;;;0.80;0.80;;;;;;;7.20;93.23;99431.94;4958717;29;20024;-92
2024/02/20 00:28:47;;;;;;;0.75;0.75;;;;;;;7.17;93.58;99429.09;4950244;29;20055;-93
2024/02/20 00:31:15;;;;;;;0.70;0.70;;;;;;;7.27;93.62;99428.75;4915148;29;20031;-93
2024/02/20 00:33:41;;;;;;;0.70;0.70;;;;;;;7.21;93.38;99428.44;4959663;29;20039;-92
2024/02/20 00:36:07;;;;;;;0.75;0.75;;;;;;;7.22;93.32;99432.91;4943734;29;20024;-91
2024/02/20 00:38:32;;;;;;;0.70;0.70;;;;;;;7.23;93.41;99437.38;4940990;29;20082;-91
2024/02/20 00:40:57;;;;;;;0.80;0.80;;;;;;;7.19;93.23;99431.03;4940779;29;20042;-91
2024/02/20 00:43:23;;;;;;;0.80;0.80;;;;;;;7.18;93.39;99431.81;4939739;29;20039;-91
2024/02/20 00:45:50;;;;;;;0.80;0.80;;;;;;;7.12;93.63;99438.56;4937586;29;20050;-92
2024/02/20 00:48:16;;;;;;;0.80;0.80;;;;;;;7.19;93.56;99422.16;4942561;28;20027;-91
2024/02/20 00:50:41;;;;;;;0.80;0.80;;;;;;;7.20;93.22;99426.63;4942437;29;20497;-93
2024/02/20 00:53:10;;;;;;;0.77;0.77;;;;;;;7.18;93.28;99436.22;4928322;28;20137;-92
2024/02/20 00:55:35;;;;;;;0.73;0.73;;;;;;;7.15;93.24;99433.44;4929427;29;20034;-91
2024/02/20 00:58:01;;;;;;;0.80;0.80;;;;;;;7.15;93.41;99426.38;4942986;29;20038;-91
2024/02/20 01:00:27;;;;;;;0.80;0.80;;;;;;;7.18;93.30;99420.31;4955007;29;20036;-92
2024/02/20 01:02:54;;;;;;;0.70;0.70;;;;;;;7.10;94.13;99434.91;4923513;29;20379;-91
2024/02/20 01:05:19;;;;;;;0.80;0.80;;;;;;;7.22;93.56;99426.69;4936618;29;20046;-91
2024/02/20 01:07:45;;;;;;;0.80;0.80;;;;;;;7.18;93.75;99425.59;4937106;29;20127;-91
2024/02/20 01:10:10;;;;;;;0.70;0.70;;;;;;;7.17;94.09;99424.69;4937773;29;20031;-92
2024/02/20 01:12:38;;;;;;;0.73;0.73;;;;;;;7.15;94.46;99426.38;4957241;28;20126;-92
2024/02/20 01:15:04;;;;;;;0.70;0.70;;;;;;;7.12;94.70;99426.19;4941654;29;20043;-92
2024/02/20 01:17:29;;;;;;;0.70;0.70;;;;;;;7.25;93.92;99438.41;4955436;29;20058;-92
2024/02/20 01:19:55;;;;;;;0.70;0.70;;;;;;;7.20;94.10;99445.19;4938036;29;20035;-93
2024/02/20 01:22:20;;;;;;;0.70;0.70;;;;;;;7.24;93.95;99444.53;4926757;29;20023;-92
2024/02/20 01:24:46;;;;;;;0.80;0.80;;;;;;;7.16;94.01;99435.25;4926580;29;20027;-92
2024/02/20 01:27:12;;;;;;;0.80;0.80;;;;;;;7.11;94.08;99432.34;4948889;29;20031;-92
2024/02/20 01:29:37;;;;;;;0.70;0.70;;;;;;;7.05;94.14;99436.41;4957807;29;20525;-92
2024/02/20 01:32:03;;;;;;;0.80;0.80;;;;;;;6.97;94.40;99440.38;4942505;29;20039;-93
2024/02/20 01:34:30;;;;;;;0.70;0.70;;;;;;;7.04;92.55;99442.53;4937697;29;20038;-91
2024/02/20 01:36:56;;;;;;;0.80;0.80;;;;;;;7.02;92.58;99439.81;4939786;29;20617;-93
2024/02/20 01:39:21;;;;;;;0.80;0.80;;;;;;;6.98;92.58;99445.75;4942227;29;20055;-92
2024/02/20 01:41:47;;;;;;;0.80;0.80;;;;;;;7.06;92.74;99447.09;4939835;29;20521;-94
2024/02/20 01:44:13;;;;;;;0.73;0.73;;;;;;;7.16;91.61;99438.81;4941068;29;20151;-93
2024/02/20 01:46:41;;;;;;;0.80;0.80;;;;;;;7.03;91.91;99441.63;4958618;28;20464;-94
2024/02/20 01:49:07;;;;;;;0.80;0.80;;;;;;;7.10;91.73;99440.22;4959556;29;20062;-93
2024/02/20 01:51:35;;;;;;;0.70;0.70;;;;;;;7.00;92.21;99440.56;4928218;29;20389;-94
2024/02/20 01:54:03;;;;;;;0.75;0.75;;;;;;;6.97;92.58;99436.00;4938303;29;20118;-92
2024/02/20 01:56:29;;;;;;;0.80;0.80;;;;;;;6.99;92.40;99449.31;4923752;29;20449;-92
2024/02/20 01:58:56;;;;;;;0.80;0.80;;;;;;;6.94;93.13;99447.31;4926881;28;20046;-92
2024/02/20 02:01:25;;;;;;;;;;;;;;;6.85;93.40;99462.78;4936712;29;20032;-93
2024/02/20 02:03:52;;;;;;;0.80;0.80;;;;;;;6.82;93.50;99449.31;4961320;28;19921;-94
2024/02/20 02:06:28;;;;;;;0.80;0.80;;;;;;;6.82;93.24;99456.38;4944107;29;20023;-93
2024/02/20 02:08:53;;;;;;;0.80;0.80;;;;;;;6.82;93.58;99451.97;4929114;29;20058;-92
2024/02/20 02:11:19;;;;;;;0.70;0.70;;;;;;;6.79;93.14;99459.75;4926724;29;20027;-93
2024/02/20 02:13:45;;;;;;;0.80;0.80;;;;;;;6.78;93.29;99463.25;4944485;29;20047;-93
2024/02/20 02:16:10;;;;;;;0.77;0.77;;;;;;;6.77;93.25;99460.50;4958852;28;20031;-93
2024/02/20 02:18:35;;;;;;;0.80;0.80;;;;;;;6.87;93.14;99458.44;4951880;29;20373;-91
2024/02/20 02:21:01;;;;;;;0.80;0.80;;;;;;;6.81;92.99;99454.56;4968089;28;20031;-92
2024/02/20 02:23:26;;;;;;;0.80;0.80;;;;;;;6.77;92.92;99464.06;4940444;29;20110;-92
2024/02/20 02:25:52;;;;;;;0.80;0.80;;;;;;;6.70;93.07;99456.59;4949635;29;20075;-91
2024/02/20 02:28:17;;;;;;;0.80;0.80;;;;;;;6.72;92.86;99456.69;4968515;28;20044;-92
2024/02/20 02:30:44;;;;;;;0.80;0.80;;;;;;;6.70;92.84;99467.19;4946497;29;20031;-92
2024/02/20 02:33:10;;;;;;;0.80;0.80;;;;;;;6.69;93.23;99466.28;4944789;29;20045;-91
2024/02/20 02:35:35;;;;;;;0.90;0.90;;;;;;;6.72;92.21;99460.25;4963317;28;20378;-93
2024/02/20 02:38:02;;;;;;;0.80;0.80;;;;;;;6.72;92.43;99468.22;4944468;29;20023;-92
2024/02/20 02:40:27;;;;;;;0.90;0.90;;;;;;;6.66;92.61;99466.13;4944373;29;20043;-91
2024/02/20 02:42:53;;;;;;;0.82;0.82;;;;;;;6.71;92.25;99479.66;4942837;29;20081;-92
2024/02/20 02:45:18;;;;;;;0.80;0.80;;;;;;;6.67;92.85;99482.94;4945091;29;20046;-91
2024/02/20 02:47:46;;;;;;;0.80;0.80;;;;;;;6.69;92.20;99481.28;4942249;29;20016;-91
2024/02/20 02:50:12;;;;;;;0.80;0.80;;;;;;;6.64;92.48;99482.75;4962685;28;20070;-92
2024/02/20 02:52:38;;;;;;;0.90;0.90;;;;;;;6.67;92.39;99489.16;4969408;28;20065;-92
2024/02/20 02:55:04;;;;;;;0.80;0.80;;;;;;;6.62;92.25;99495.03;4940957;29;20075;-93
2024/02/20 02:57:29;;;;;;;0.80;0.80;;;;;;;6.73;91.63;99490.34;4960514;28;20027;-94
2024/02/20 02:59:55;;;;;;;0.80;0.80;;;;;;;6.62;91.71;99497.69;4957944;29;20038;-90
2024/02/20 03:02:21;;;;;;;0.70;0.70;;;;;;;6.60;91.39;99500.22;4930185;29;20071;-92
2024/02/20 03:04:47;;;;;;;0.90;0.90;;;;;;;6.59;91.18;99503.72;4941731;29;20046;-93
2024/02/20 03:07:13;;;;;;;0.90;0.90;;;;;;;6.57;91.41;99500.06;4928199;29;20512;-92
2024/02/20 03:09:39;;;;;;;0.88;0.88;;;;;;;6.54;90.47;99496.31;4946465;29;20034;-93
2024/02/20 03:12:06;;;;;;;0.80;0.80;;;;;;;6.59;90.59;99505.47;4935264;29;20043;-92
2024/02/20 03:14:31;;;;;;;0.80;0.80;;;;;;;6.56;90.15;99508.81;4967935;29;20027;-91
2024/02/20 03:16:57;;;;;;;0.90;0.90;;;;;;;6.58;90.07;99514.25;4952533;29;20054;-92
2024/02/20 03:19:23;;;;;;;0.80;0.80;;;;;;;6.56;89.56;99511.47;4950618;29;20053;-91
2024/02/20 03:21:48;;;;;;;0.77;0.77;;;;;;;6.61;89.38;99519.69;4951606;29;20031;-91
2024/02/20 03:24:14;;;;;;;0.80;0.80;;;;;;;6.54;89.75;99517.53;4929881;29;20043;-90
2024/02/20 03:26:39;;;;;;;0.80;0.80;;;;;;;6.54;89.97;99517.53;4947178;29;20163;-92
2024/02/20 03:29:07;;;;;;;0.80;0.80;;;;;;;6.61;89.00;99530.31;4933070;29;20367;-92
2024/02/20 03:31:33;;;;;;;0.80;0.80;;;;;;;6.61;87.78;99527.66;4942551;29;20066;-92
2024/02/20 03:33:59;;;;;;;0.80;0.80;;;;;;;6.61;87.71;99540.91;4948248;29;20070;-90
2024/02/20 03:36:25;;;;;;;0.80;0.80;;;;;;;6.47;88.07;99541.84;4948836;29;20054;-91
2024/02/20 03:38:50;;;;;;;0.80;0.80;;;;;;;6.55;87.73;99544.13;4949673;29;20090;-92
2024/02/20 03:41:16;;;;;;;0.80;0.80;;;;;;;6.39;88.88;99544.97;4970910;28;20103;-94
2024/02/20 03:43:41;;;;;;;0.80;0.80;;;;;;;6.46;88.19;99542.69;4956886;29;20019;-93
2024/02/20 03:46:09;;;;;;;0.80;0.80;;;;;;;6.43;88.14;99543.44;4959584;28;20037;-94
2024/02/20 03:48:36;;;;;;;0.90;0.90;;;;;;;6.34;88.60;99557.06;4961056;29;20029;-93
2024/02/20 03:51:01;;;;;;;0.80;0.80;;;;;;;6.35;88.86;99555.31;4957639;29;20019;-91
2024/02/20 03:53:27;;;;;;;0.80;0.80;;;;;;;6.45;87.51;99559.41;4965183;28;20114;-91
2024/02/20 03:55:53;;;;;;;0.80;0.80;;;;;;;6.45;86.93;99562.06;4931782;29;20027;-92
2024/02/20 03:58:18;;;;;;;0.80;0.80;;;;;;;6.36;87.20;99571.28;4931644;28;20390;-92
2024/02/20 04:00:44;;;;;;;0.80;0.80;;;;;;;6.39;85.09;99568.84;4949149;29;20047;-90
2024/02/20 04:03:10;;;;;;;0.73;0.73;;;;;;;6.29;85.44;99579.72;4934070;29;20050;-90
2024/02/20 04:05:37;;;;;;;0.80;0.80;;;;;;;6.23;85.52;99574.06;4946696;29;20031;-90
2024/02/20 04:08:04;;;;;;;0.85;0.85;;;;;;;6.09;85.83;99574.97;4962166;29;20055;-90
2024/02/20 04:10:29;;;;;;;0.80;0.80;;;;;;;6.06;85.76;99582.72;4944625;29;20032;-92
2024/02/20 04:12:54;;;;;;;0.88;0.88;;;;;;;6.06;84.93;99586.28;4925283;29;20031;-91
2024/02/20 04:15:21;;;;;;;0.90;0.90;;;;;;;6.06;84.75;99588.03;4961904;29;20045;-92
2024/02/20 04:17:46;;;;;;;0.80;0.80;;;;;;;6.14;84.55;99586.75;4961080;28;20027;-91
2024/02/20 04:20:12;;;;;;;0.88;0.88;;;;;;;5.98;85.28;99587.53;4958594;28;20027;-91
2024/02/20 04:22:38;;;;;;;0.80;0.80;;;;;;;5.97;85.16;99595.41;4931524;29;20091;-91
2024/02/20 04:25:05;;;;;;;0.80;0.80;;;;;;;6.01;85.43;99597.44;4953953;29;20095;-92
2024/02/20 04:27:31;;;;;;;0.82;0.82;;;;;;;5.96;84.91;99615.69;4940775;29;20031;-91
2024/02/20 04:29:56;;;;;;;0.90;0.90;;;;;;;5.90;85.34;99613.53;4951511;29;20070;-92
2024/02/20 04:32:24;;;;;;;0.82;0.82;;;;;;;5.78;85.85;99622.47;4926224;29;20051;-92
2024/02/20 04:34:50;;;;;;;0.80;0.80;;;;;;;5.80;85.40;99619.09;4926097;29;20051;-92
2024/02/20 04:37:16;;;;;;;0.90;0.90;;;;;;;5.72;86.39;99623.00;4944215;29;20043;-92
2024/02/20 04:39:44;;;;;;;0.80;0.80;;;;;;;5.59;86.71;99623.03;4946057;29;20064;-92
2024/02/20 04:42:10;;;;;;;0.80;0.80;;;;;;;5.47;87.05;99633.78;4946186;29;20053;-92
2024/02/20 04:44:37;;;;;;;0.80;0.80;;;;;;;5.50;87.20;99625.09;4940710;29;20031;-92
2024/02/20 04:47:06;;;;;;;0.88;0.88;;;;;;;5.56;87.25;99628.16;4927530;29;20041;-92
2024/02/20 04:49:33;;;;;;;0.90;0.90;;;;;;;5.53;87.05;99631.50;4939886;29;20457;-91
2024/02/20 04:52:00;;;;;;;0.90;0.90;;;;;;;5.44;87.78;99627.38;4926841;29;20031;-90
2024/02/20 04:54:26;;;;;;;0.80;0.80;;;;;;;5.61;87.23;99632.00;4939554;28;20102;-92
2024/02/20 04:56:54;;;;;;;0.90;0.90;;;;;;;5.70;86.97;99627.28;4925884;29;20049;-92
2024/02/20 04:59:23;;;;;;;0.90;0.90;;;;;;;5.76;86.53;99632.97;4956924;29;20122;-92
2024/02/20 05:01:48;;;;;;;0.80;0.80;;;;;;;5.91;85.84;99633.94;4956863;28;20066;-93
2024/02/20 05:04:15;;;;;;;0.80;0.80;;;;;;;5.89;85.79;99638.22;4936447;29;20046;-94
2024/02/20 05:06:41;;;;;;;0.90;0.90;;;;;;;5.92;85.43;99634.84;4926956;29;20048;-91
2024/02/20 05:09:08;;;;;;;0.90;0.90;;;;;;;5.99;85.64;99641.44;4943677;28;20119;-92
2024/02/20 05:11:34;;;;;;;0.90;0.90;;;;;;;6.00;84.92;99637.97;4937171;29;20035;-91
2024/02/20 05:14:01;;;;;;;0.90;0.90;;;;;;;5.95;85.44;99645.66;4937089;29;20363;-92
2024/02/20 05:16:26;;;;;;;0.90;0.90;;;;;;;5.95;85.71;99642.09;4924838;29;20090;-92
2024/02/20 05:18:52;;;;;;;0.80;0.80;;;;;;;5.95;85.51;99642.09;4941272;29;20131;-92
2024/02/20 05:21:18;;;;;;;0.80;0.80;;;;;;;6.06;85.24;99647.22;4939872;29;20378;-91
2024/02/20 05:23:43;;;;;;;0.75;0.75;;;;;;;6.03;85.15;99643.44;4949160;28;20047;-91
2024/02/20 05:26:09;;;;;;;0.80;0.80;;;;;;;6.07;85.03;99651.69;4941108;29;20462;-92
2024/02/20 05:28:34;;;;;;;0.80;0.80;;;;;;;6.01;85.18;99643.38;4925111;29;20153;-92
2024/02/20 05:30:59;;;;;;;0.90;0.90;;;;;;;5.97;85.08;99649.28;4941126;29;20039;-91
2024/02/20 05:33:25;;;;;;;0.80;0.80;;;;;;;6.09;84.42;99646.50;4934012;28;20417;-93
2024/02/20 05:35:50;;;;;;;0.80;0.80;;;;;;;6.14;83.88;99656.56;4934826;29;20497;-92
2024/02/20 05:38:17;;;;;;;0.80;0.80;;;;;;;6.22;83.34;99656.09;4927755;29;20042;-91
2024/02/20 05:40:43;;;;;;;0.90;0.90;;;;;;;6.12;83.43;99651.97;4941152;29;21407;-91
2024/02/20 05:43:09;;;;;;;0.80;0.80;;;;;;;6.10;83.74;99654.53;4944128;29;20497;-91
2024/02/20 05:45:34;;;;;;;0.80;0.80;;;;;;;6.09;84.10;99670.34;4932574;29;20027;-91
2024/02/20 05:48:02;;;;;;;0.80;0.80;;;;;;;6.16;83.32;99656.63;4940856;29;20392;-92
2024/02/20 05:50:31;;;;;;;0.80;0.80;;;;;;;6.07;83.46;99662.28;4926932;29;20066;-91
2024/02/20 05:52:56;;;;;;;0.80;0.80;;;;;;;6.04;84.04;99663.84;4928656;29;20030;-90
2024/02/20 05:55:23;;;;;;;0.80;0.80;;;;;;;6.16;82.60;99660.19;4925868;29;20130;-92
2024/02/20 05:57:49;;;;;;;0.80;0.80;;;;;;;6.18;82.81;99662.97;4960919;29;20058;-91
2024/02/20 06:00:14;;;;;;;0.80;0.80;;;;;;;6.16;82.50;99660.19;4943444;29;20267;-92
2024/02/20 06:02:40;;;;;;;0.90;0.90;;;;;;;6.19;82.23;99664.78;4944399;29;20030;-92
2024/02/20 06:05:07;;;;;;;0.80;0.80;;;;;;;5.96;83.20;99667.75;4941675;29;20039;-90
2024/02/20 06:07:33;;;;;;;0.80;0.80;;;;;;;5.90;83.59;99674.47;4956440;28;20035;-90
2024/02/20 06:10:03;;;;;;;0.80;0.80;;;;;;;5.82;83.72;99685.38;4924420;29;20400;-90
2024/02/20 06:12:55;;;;;;;0.82;0.82;;;;;;;5.87;83.15;99674.25;4944998;29;20046;-90
2024/02/20 06:15:22;;;;;;;0.90;0.90;;;;;;;5.81;83.16;99684.47;4941642;29;20039;-88
2024/02/20 06:17:48;;;;;;;0.90;0.90;;;;;;;5.80;83.24;99687.94;4941917;29;20039;-91
2024/02/20 06:20:14;;;;;;;0.90;0.90;;;;;;;5.87;82.64;99683.94;4956298;29;20063;-91
2024/02/20 06:22:39;;;;;;;0.80;0.80;;;;;;;5.87;83.04;99684.84;4934102;29;20047;-89
2024/02/20 06:25:07;;;;;;;0.80;0.80;;;;;;;5.88;83.19;99686.66;4932856;29;20035;-89
2024/02/20 06:27:33;;;;;;;0.80;0.80;;;;;;;5.82;83.51;99691.59;4950269;29;20036;-89
2024/02/20 06:29:59;;;;;;;0.80;0.80;;;;;;;5.88;83.18;99701.66;4929190;29;20020;-90
2024/02/20 06:32:25;;;;;;;0.90;0.90;;;;;;;6.00;82.52;99694.53;4942270;29;20490;-90
2024/02/20 06:34:51;;;;;;;0.80;0.80;;;;;;;5.93;82.86;99699.31;4956331;29;20285;-90
2024/02/20 06:37:16;;;;;;;0.80;0.80;;;;;;;6.01;82.50;99706.03;4942078;29;20388;-90
2024/02/20 06:39:42;;;;;;;0.85;0.85;;;;;;;6.07;81.80;99706.41;4941631;29;20046;-90
2024/02/20 06:42:07;;;;;;;0.90;0.90;;;;;;;6.04;82.09;99696.53;4959249;28;20024;-90
2024/02/20 06:44:33;;;;;;;0.88;0.88;;;;;;;5.98;82.60;99704.09;4943437;29;20034;-90
2024/02/20 06:46:58;;;;;;;1.00;1.00;;;;;;;5.93;82.69;99712.56;4942502;29;20032;-91
2024/02/20 06:49:23;;;;;;;0.80;0.80;;;;;;;6.08;81.94;99713.53;4942540;29;20039;-90
2024/02/20 06:51:49;;;;;;;0.90;0.90;;;;;;;6.18;81.83;99715.97;4942583;29;20043;-90
2024/02/20 06:54:14;;;;;;;0.80;0.80;;;;;;;6.22;81.08;99720.59;4942732;29;20039;-91
2024/02/20 06:56:41;;;;;;;0.80;0.80;;;;;;;6.28;81.25;99721.00;4938055;29;20438;-92
2024/02/20 06:59:06;;;;;;;0.80;0.80;;;;;;;6.24;81.94;99721.63;4938414;29;20113;-89
2024/02/20 07:01:32;;;;;;;0.90;0.90;;;;;;;6.27;81.38;99721.78;4941956;29;20055;-91
2024/02/20 07:03:57;;;;;;;0.82;0.82;;;;;;;6.48;80.96;99731.91;4957896;29;20070;-91
2024/02/20 07:06:24;;;;;;;0.90;0.90;;;;;;;6.53;81.59;99727.81;4939060;29;20058;-91
2024/02/20 07:08:49;;;;;;;0.75;0.75;;;;;;;6.48;81.54;99729.25;4941859;29;20028;-91
2024/02/20 07:11:16;;;;;;;0.85;0.85;;;;;;;6.50;81.00;99735.56;4959631;29;20043;-92
2024/02/20 07:13:42;;;;;;;0.70;0.70;;;;;;;6.48;81.47;99742.50;4932338;29;20031;-90
2024/02/20 07:16:08;;;;;;;0.80;0.80;;;;;;;6.59;81.12;99744.06;4942740;29;20046;-91
2024/02/20 07:18:35;;;;;;;0.80;0.80;;;;;;;6.53;81.68;99749.91;4953445;29;20028;-91
2024/02/20 07:21:03;;;;;;;0.80;0.80;;;;;;;6.62;81.37;99752.22;4942468;29;20110;-92
2024/02/20 07:23:30;;;;;;;0.80;0.80;;;;;;;6.63;81.02;99756.69;4942060;29;20035;-90
2024/02/20 07:25:55;;;;;;;0.80;0.80;;;;;;;6.66;81.11;99752.50;4942482;29;20072;-90
2024/02/20 07:28:21;;;;;;;0.80;0.80;;;;;;;6.68;80.92;99760.53;4959757;28;20031;-91
2024/02/20 07:30:46;;;;;;;0.90;0.90;;;;;;;6.66;80.85;99762.22;4926910;29;20452;-91
2024/02/20 07:33:13;;;;;;;0.90;0.90;;;;;;;6.73;80.78;99769.69;4958999;29;20077;-89
2024/02/20 07:35:40;;;;;;;0.80;0.80;;;;;;;6.84;80.73;99765.94;4956648;29;20289;-90
2024/02/20 07:38:05;;;;;;;0.80;0.80;;;;;;;6.82;81.02;99770.25;4953711;29;20477;-90
2024/02/20 07:40:31;;;;;;;0.80;0.80;;;;;;;6.87;80.20;99774.09;4937074;29;20039;-91
2024/02/20 07:42:56;;;;;;;0.80;0.80;;;;;;;6.87;80.50;99766.13;4944152;29;20854;-90
2024/02/20 07:45:22;;;;;;;0.80;0.80;;;;;;;6.84;80.81;99773.91;4945491;28;20046;-91
2024/02/20 07:47:51;;;;;;;0.80;0.80;;;;;;;7.05;79.31;99776.03;4926684;29;20070;-91
2024/02/20 07:50:22;;;;;;;0.70;0.70;;;;;;;7.08;79.83;99773.53;4929096;29;20039;-90
2024/02/20 07:52:48;;;;;;;0.70;0.70;;;;;;;7.05;79.92;99769.00;4943308;29;20107;-90
2024/02/20 07:55:13;;;;;;;0.80;0.80;;;;;;;7.05;79.32;99774.28;4943757;29;20079;-90
2024/02/20 07:57:39;;;;;;;0.75;0.75;;;;;;;7.04;79.62;99775.13;4958905;28;20772;-90
2024/02/20 08:00:05;;;;;;;0.80;0.80;;;;;;;7.04;79.46;99779.47;4932218;29;20023;-90
2024/02/20 08:02:40;;;;;;;0.80;0.80;;;;;;;7.15;79.28;99786.38;4951886;29;20404;-90
2024/02/20 08:05:06;;;;;;;0.80;0.80;;;;;;;7.09;79.57;99773.66;4931704;29;20047;-91
2024/02/20 08:07:32;;;;;;;0.80;0.80;;;;;;;7.25;78.67;99783.44;4936545;29;20050;-91
2024/02/20 08:09:57;;;;;;;0.88;0.88;;;;;;;7.43;77.64;99784.50;4944192;29;20027;-91
2024/02/20 08:12:24;;;;;;;0.90;0.90;;;;;;;7.72;77.17;99790.59;4944534;29;20050;-90
2024/02/20 08:14:49;;;;;;;1.00;1.00;;;;;;;8.49;74.43;99785.19;4940963;29;20032;-91
2024/02/20 08:17:14;;;;;;;0.80;0.80;;;;;;;8.57;73.60;99785.56;4928613;29;20035;-91
2024/02/20 08:19:41;;;;;;;0.70;0.70;;;;;;;8.12;75.20;99803.47;4957838;28;20042;-90
2024/02/20 08:22:07;;;;;;;0.90;0.90;;;;;;;8.12;75.45;99791.09;4934934;29;20042;-90
2024/02/20 08:24:33;;;;;;;0.80;0.80;;;;;;;8.31;74.71;99790.38;4962712;29;20039;-90
2024/02/20 08:27:01;;;;;;;0.90;0.90;;;;;;;8.36;73.66;99793.28;4965381;29;20039;-90
2024/02/20 08:29:28;;;;;;;0.80;0.80;;;;;;;8.46;73.66;99790.31;4932301;29;20108;-91
2024/02/20 08:32:00;;;;;;;0.80;0.80;;;;;;;9.09;71.73;99783.91;4962193;28;20035;-92
2024/02/20 08:34:26;;;;;;;0.80;0.80;;;;;;;8.62;72.11;99792.06;4969274;28;20042;-91
2024/02/20 08:36:51;;;;;;;0.70;0.70;;;;;;;8.70;72.97;99790.72;4951900;29;20026;-91
2024/02/20 08:39:17;;;;;;;0.80;0.80;;;;;;;8.82;72.38;99793.16;4933126;29;20051;-91
2024/02/20 08:41:42;;;;;;;0.80;0.80;;;;;;;8.50;73.17;99796.72;4938049;28;20113;-91
2024/02/20 08:44:08;;;;;;;0.70;0.70;;;;;;;8.40;73.34;99793.56;4934600;29;20050;-92
2024/02/20 08:46:34;;;;;;;0.70;0.70;;;;;;;8.68;71.94;99790.66;4946465;29;20039;-92
2024/02/20 08:49:03;;;;;;;0.80;0.80;;;;;;;8.46;72.95;99804.53;4950203;29;20066;-89
2024/02/20 08:51:28;;;;;;;0.80;0.80;;;;;;;8.39;72.49;99797.06;4950572;29;20043;-90
2024/02/20 08:53:54;;;;;;;0.70;0.70;;;;;;;8.50;71.80;99794.97;4951734;29;20042;-91
2024/02/20 08:56:20;;;;;;;0.80;0.80;;;;;;;8.79;72.37;99803.63;4950132;29;20054;-92
2024/02/20 08:58:49;;;;;;;0.80;0.80;;;;;;;8.61;73.34;99800.88;4973844;29;20137;-90
2024/02/20 09:01:15;;;;;;;0.77;0.77;;;;;;;8.42;73.88;99812.25;4960773;29;20062;-91
2024/02/20 09:03:41;;;;;;;0.70;0.70;;;;;;;8.01;75.45;99812.59;4963548;29;20034;-90
2024/02/20 09:06:06;;;;;;;0.80;0.80;;;;;;;8.01;75.29;99812.59;4944944;29;20070;-90
2024/02/20 09:08:32;;;;;;;0.80;0.80;;;;;;;8.09;74.98;99803.28;4946231;29;20039;-91
2024/02/20 09:11:03;;;;;;;0.75;0.75;;;;;;;8.18;73.54;99817.09;4950619;29;20126;-91
2024/02/20 09:13:35;;;;;;;0.80;0.80;;;;;;;8.37;73.16;99819.06;4944971;29;20505;-91
2024/02/20 09:16:05;;;;;;;0.80;0.80;;;;;;;8.50;72.84;99810.94;4969658;28;20031;-92
2024/02/20 09:18:37;;;;;;;0.80;0.80;;;;;;;8.68;72.62;99816.34;4951853;29;20117;-92
2024/02/20 09:21:04;;;;;;;0.80;0.80;;;;;;;8.80;72.32;99814.34;4950899;29;20039;-92
2024/02/20 09:23:32;;;;;;;0.80;0.80;;;;;;;8.52;73.03;99813.66;4924848;29;20545;-92
2024/02/20 09:25:58;;;;;;;0.70;0.70;;;;;;;8.79;72.10;99824.91;4928366;29;20035;-91
2024/02/20 09:28:23;;;;;;;0.70;0.70;;;;;;;8.38;72.88;99835.09;4957791;28;20039;-91
2024/02/20 09:30:49;;;;;;;0.70;0.70;;;;;;;8.14;73.93;99831.03;4941994;29;20050;-91
2024/02/20 09:33:18;;;;;;;0.80;0.80;;;;;;;8.08;74.94;99831.63;4932788;29;20110;-92
2024/02/20 09:35:43;;;;;;;0.80;0.80;;;;;;;8.05;74.38;99839.44;4958586;28;20046;-92
2024/02/20 09:38:10;;;;;;;0.80;0.80;;;;;;;8.05;74.15;99834.13;4941664;29;20039;-92
2024/02/20 09:40:37;;;;;;;0.90;0.90;;;;;;;8.07;74.40;99834.19;4942707;29;20126;-91
2024/02/20 09:43:04;;;;;;;0.80;0.80;;;;;;;8.23;74.07;99836.88;4942406;29;20035;-92
2024/02/20 09:45:32;;;;;;;0.80;0.80;;;;;;;8.43;73.60;99828.31;4941370;29;20031;-92
2024/02/20 09:47:58;;;;;;;0.80;0.80;;;;;;;8.73;72.91;99828.16;4923998;29;20039;-93
2024/02/20 09:50:25;;;;;;;0.80;0.80;;;;;;;8.73;71.30;99825.50;4923738;29;20031;-93
2024/02/20 09:52:53;;;;;;;0.80;0.80;;;;;;;8.94;70.58;99823.06;4941083;29;20027;-91
2024/02/20 09:55:20;;;;;;;0.80;0.80;;;;;;;9.16;70.22;99822.44;4941544;29;20053;-91
2024/02/20 09:57:49;;;;;;;0.80;0.80;;;;;;;9.00;70.35;99834.91;4957976;29;20077;-92
2024/02/20 10:00:15;;;;;;;0.70;0.70;;;;;;;9.04;69.81;99829.78;4957907;29;20054;-91
2024/02/20 10:02:44;;;;;;;0.77;0.77;;;;;;;8.85;68.39;99831.47;4939094;29;20035;-92
2024/02/20 10:05:15;;;;;;;0.93;0.93;;;;;;;9.96;65.25;99824.69;4959854;29;20039;-92
2024/02/20 10:07:40;;;;;;;0.90;0.90;;;;;;;11.75;59.80;99812.44;4961669;29;20103;-92
2024/02/20 10:10:11;;;;;;;0.70;0.70;;;;;;;13.15;55.94;99805.44;4963296;29;20055;-92
2024/02/20 10:12:39;;;;;;;0.70;0.70;;;;;;;14.12;51.90;99802.53;4941590;29;20046;-93
2024/02/20 10:15:08;;;;;;;0.60;0.60;;;;;;;14.76;49.74;99797.38;4930338;29;20110;-93
2024/02/20 10:17:35;;;;;;;0.50;0.50;;;;;;;15.00;48.92;99795.41;4961601;28;20035;-93
2024/02/20 10:20:19;;;;;;;0.50;0.50;;;;;;;14.45;49.60;99801.78;4961916;28;20170;-92
2024/02/20 10:22:45;;;;;;;0.60;0.60;;;;;;;16.16;46.46;99784.09;4962600;29;20106;-91
2024/02/20 10:25:12;;;;;;;0.47;0.47;;;;;;;16.96;44.53;99775.09;4944408;29;20039;-90
2024/02/20 10:27:39;;;;;;;0.40;0.40;;;;;;;15.62;46.42;99789.91;4947047;29;20115;-91
2024/02/20 10:30:07;;;;;;;0.40;0.40;;;;;;;15.84;44.37;99786.00;4947845;29;20027;-91
2024/02/20 10:32:34;;;;;;;0.40;0.40;;;;;;;15.06;45.58;99795.56;4932381;29;20537;-91
2024/02/20 10:35:01;;;;;;;0.40;0.40;;;;;;;14.47;47.19;99797.38;4946602;29;20035;-91
2024/02/20 10:37:27;;;;;;;0.40;0.40;;;;;;;14.67;46.54;99794.41;4963022;29;20050;-91
2024/02/20 10:40:22;;;;;;;0.50;0.50;;;;;;;12.73;51.41;99800.31;4961688;29;20031;-90
2024/02/20 10:42:49;;;;;;;0.50;0.50;;;;;;;12.47;53.65;99812.72;4940772;29;20532;-91
2024/02/20 10:45:16;;;;;;;0.60;0.60;;;;;;;12.55;50.78;99795.19;4961690;29;20022;-91
2024/02/20 10:47:45;;;;;;;0.60;0.60;;;;;;;13.33;49.94;99800.78;4962977;29;20066;-90
2024/02/20 10:50:15;;;;;;;0.70;0.70;;;;;;;14.01;48.26;99797.69;4947895;29;20046;-91
2024/02/20 10:52:42;;;;;;;0.50;0.50;;;;;;;13.74;48.84;99795.00;4945281;29;20134;-91
2024/02/20 10:55:11;;;;;;;0.50;0.50;;;;;;;14.36;47.88;99794.34;4928089;28;20078;-91
2024/02/20 10:57:42;;;;;;;0.60;0.60;;;;;;;14.24;48.27;99796.66;4961440;28;20047;-91
2024/02/20 11:00:09;;;;;;;0.60;0.60;;;;;;;13.10;51.27;99796.31;4940232;29;20047;-91
2024/02/20 11:02:47;;;;;;;0.60;0.60;;;;;;;13.33;48.48;99799.84;4925066;29;20051;-93
2024/02/20 11:05:13;;;;;;;0.52;0.52;;;;;;;12.99;49.47;99798.63;4956866;29;20043;-91
2024/02/20 11:07:44;;;;;;;0.60;0.60;;;;;;;12.65;51.33;99799.13;4943543;29;20050;-91
2024/02/20 11:10:17;;;;;;;0.50;0.50;;;;;;;12.85;50.23;99786.47;4940053;29;20059;-91
2024/02/20 11:12:46;;;;;;;0.68;0.68;;;;;;;13.26;49.69;99784.41;4943585;29;20042;-91
2024/02/20 11:15:19;;;;;;;0.60;0.60;;;;;;;12.88;51.10;99783.88;4926847;29;20050;-92
2024/02/20 11:17:46;;;;;;;0.70;0.70;;;;;;;13.46;49.17;99780.66;4962742;28;20042;-93
2024/02/20 11:20:21;;;;;;;0.60;0.60;;;;;;;13.51;48.46;99772.75;4946695;29;20029;-92
2024/02/20 11:22:50;;;;;;;0.68;0.68;;;;;;;12.75;49.56;99787.91;4939129;29;20043;-90
2024/02/20 11:25:27;;;;;;;0.60;0.60;;;;;;;12.30;51.05;99776.34;4960463;29;20048;-91
2024/02/20 11:27:52;;;;;;;0.60;0.60;;;;;;;13.16;51.21;99777.78;4940516;29;20053;-90
2024/02/20 11:30:23;;;;;;;0.60;0.60;;;;;;;13.23;51.26;99777.19;4942373;29;20047;-90
2024/02/20 11:32:55;;;;;;;0.70;0.70;;;;;;;13.71;47.18;99766.31;4955860;29;20391;-90
2024/02/20 11:35:31;;;;;;;0.60;0.60;;;;;;;13.72;45.90;99765.44;4956136;28;20045;-91
2024/02/20 11:38:00;;;;;;;0.70;0.70;;;;;;;14.49;45.00;99760.75;4948655;29;20629;-90
2024/02/20 11:40:33;;;;;;;0.50;0.50;;;;;;;15.31;41.87;99755.91;4949539;29;20035;-92